LKHK weather

Hradec Králové Airport
Hradec Králové, Hradec Králové Region, Czechia

Public forecast

Using degrees Celsius for public forecast. Weather courtesy of forecast.io.

METAR (pilot weather report)

Closest report is Pardubice Airport, 15.0 nm (27.7 km) SSW. Retrieved 2019/09/23 18:00 UTC (37 minutes ago):

LKPD 231800Z 00000KT CAVOK 15/10 Q1014 NOSIG RMK BLU BLU

TAF (pilot weather forecast)

Closest forecast is Pardubice Airport, 15.0 nm (27.7 km) SSW. Retrieved 2019/09/23 18:00 UTC (37 minutes ago):

TAF LKPD 231700Z 2318/2418 30004KT 9999 SCT040 PROB30 TEMPO 2402/2405 4000 BR